sensor_id;sensor_type;location;lat;lon;timestamp;P1;durP1;ratioP1;P2;durP2;ratioP2
64816;SDS011;53289;45.602;11.904;2022-12-11T00:01:17;15.32;;;9.82;;
64816;SDS011;53289;45.602;11.904;2022-12-11T00:03:44;15.50;;;10.45;;
64816;SDS011;53289;45.602;11.904;2022-12-11T00:06:12;16.23;;;10.65;;
64816;SDS011;53289;45.602;11.904;2022-12-11T00:08:39;15.38;;;9.40;;
64816;SDS011;53289;45.602;11.904;2022-12-11T00:11:10;23.52;;;12.90;;
64816;SDS011;53289;45.602;11.904;2022-12-11T00:13:37;18.00;;;11.55;;
64816;SDS011;53289;45.602;11.904;2022-12-11T00:16:03;15.55;;;10.55;;
64816;SDS011;53289;45.602;11.904;2022-12-11T00:18:30;17.48;;;10.55;;
64816;SDS011;53289;45.602;11.904;2022-12-11T00:21:02;16.20;;;11.13;;
64816;SDS011;53289;45.602;11.904;2022-12-11T00:23:29;19.50;;;12.07;;
64816;SDS011;53289;45.602;11.904;2022-12-11T00:25:55;19.83;;;11.98;;
64816;SDS011;53289;45.602;11.904;2022-12-11T00:28:21;14.85;;;10.27;;
64816;SDS011;53289;45.602;11.904;2022-12-11T00:30:47;15.98;;;11.63;;
64816;SDS011;53289;45.602;11.904;2022-12-11T00:33:14;16.95;;;11.30;;
64816;SDS011;53289;45.602;11.904;2022-12-11T00:35:41;17.55;;;11.63;;
64816;SDS011;53289;45.602;11.904;2022-12-11T00:38:13;16.02;;;10.20;;
64816;SDS011;53289;45.602;11.904;2022-12-11T00:40:43;16.45;;;9.27;;
64816;SDS011;53289;45.602;11.904;2022-12-11T00:43:09;16.80;;;10.18;;
64816;SDS011;53289;45.602;11.904;2022-12-11T00:45:42;14.68;;;9.20;;
64816;SDS011;53289;45.602;11.904;2022-12-11T00:48:10;13.60;;;8.80;;
64816;SDS011;53289;45.602;11.904;2022-12-11T00:50:37;12.63;;;8.32;;
64816;SDS011;53289;45.602;11.904;2022-12-11T00:53:03;11.30;;;7.13;;
64816;SDS011;53289;45.602;11.904;2022-12-11T00:55:30;9.27;;;6.38;;
64816;SDS011;53289;45.602;11.904;2022-12-11T00:58:00;9.15;;;5.85;;
64816;SDS011;53289;45.602;11.904;2022-12-11T01:00:26;10.70;;;6.88;;
64816;SDS011;53289;45.602;11.904;2022-12-11T01:02:52;11.93;;;7.57;;
64816;SDS011;53289;45.602;11.904;2022-12-11T01:05:20;11.02;;;7.18;;
64816;SDS011;53289;45.602;11.904;2022-12-11T01:07:47;10.82;;;7.13;;
64816;SDS011;53289;45.602;11.904;2022-12-11T01:10:13;10.63;;;6.78;;
64816;SDS011;53289;45.602;11.904;2022-12-11T01:13:06;10.27;;;6.82;;
64816;SDS011;53289;45.602;11.904;2022-12-11T01:15:33;9.10;;;5.50;;
64816;SDS011;53289;45.602;11.904;2022-12-11T01:18:03;7.95;;;5.40;;
64816;SDS011;53289;45.602;11.904;2022-12-11T01:20:29;7.75;;;4.78;;
64816;SDS011;53289;45.602;11.904;2022-12-11T01:22:57;10.75;;;6.75;;
64816;SDS011;53289;45.602;11.904;2022-12-11T01:25:25;9.25;;;5.80;;
64816;SDS011;53289;45.602;11.904;2022-12-11T01:27:53;9.30;;;6.32;;
64816;SDS011;53289;45.602;11.904;2022-12-11T01:30:21;11.00;;;5.95;;
64816;SDS011;53289;45.602;11.904;2022-12-11T01:32:48;10.90;;;7.03;;
64816;SDS011;53289;45.602;11.904;2022-12-11T01:35:14;11.32;;;6.28;;
64816;SDS011;53289;45.602;11.904;2022-12-11T01:37:41;9.57;;;5.93;;
64816;SDS011;53289;45.602;11.904;2022-12-11T01:40:08;9.98;;;5.68;;
64816;SDS011;53289;45.602;11.904;2022-12-11T01:42:36;10.88;;;6.75;;
64816;SDS011;53289;45.602;11.904;2022-12-11T01:47:46;12.02;;;7.70;;
64816;SDS011;53289;45.602;11.904;2022-12-11T01:50:28;9.75;;;6.60;;
64816;SDS011;53289;45.602;11.904;2022-12-11T01:52:58;9.73;;;6.20;;
64816;SDS011;53289;45.602;11.904;2022-12-11T01:55:24;10.60;;;6.63;;
64816;SDS011;53289;45.602;11.904;2022-12-11T01:57:50;9.27;;;6.18;;
64816;SDS011;53289;45.602;11.904;2022-12-11T02:00:18;8.80;;;5.88;;
64816;SDS011;53289;45.602;11.904;2022-12-11T02:02:45;8.48;;;5.53;;
64816;SDS011;53289;45.602;11.904;2022-12-11T02:05:11;10.20;;;6.35;;
64816;SDS011;53289;45.602;11.904;2022-12-11T02:07:38;10.30;;;6.47;;
64816;SDS011;53289;45.602;11.904;2022-12-11T02:10:10;10.05;;;5.32;;
64816;SDS011;53289;45.602;11.904;2022-12-11T02:12:59;7.78;;;5.20;;
64816;SDS011;53289;45.602;11.904;2022-12-11T02:18:09;7.60;;;5.03;;
64816;SDS011;53289;45.602;11.904;2022-12-11T02:20:57;7.30;;;5.00;;
64816;SDS011;53289;45.602;11.904;2022-12-11T02:28:57;8.68;;;5.38;;
64816;SDS011;53289;45.602;11.904;2022-12-11T02:31:35;9.13;;;5.93;;
64816;SDS011;53289;45.602;11.904;2022-12-11T02:37:15;9.68;;;6.38;;
64816;SDS011;53289;45.602;11.904;2022-12-11T02:39:45;8.65;;;6.30;;
64816;SDS011;53289;45.602;11.904;2022-12-11T02:42:14;9.00;;;6.13;;
64816;SDS011;53289;45.602;11.904;2022-12-11T02:44:40;7.75;;;4.80;;
64816;SDS011;53289;45.602;11.904;2022-12-11T02:47:10;10.05;;;6.13;;
64816;SDS011;53289;45.602;11.904;2022-12-11T02:49:39;8.70;;;5.30;;
64816;SDS011;53289;45.602;11.904;2022-12-11T02:52:09;6.93;;;4.68;;
64816;SDS011;53289;45.602;11.904;2022-12-11T02:54:39;8.27;;;5.25;;
64816;SDS011;53289;45.602;11.904;2022-12-11T02:57:11;7.93;;;5.20;;
64816;SDS011;53289;45.602;11.904;2022-12-11T02:59:42;9.27;;;5.67;;
64816;SDS011;53289;45.602;11.904;2022-12-11T03:02:10;9.55;;;6.15;;
64816;SDS011;53289;45.602;11.904;2022-12-11T03:04:40;9.60;;;6.18;;
64816;SDS011;53289;45.602;11.904;2022-12-11T03:07:26;10.02;;;6.60;;
64816;SDS011;53289;45.602;11.904;2022-12-11T03:09:55;9.18;;;5.60;;
64816;SDS011;53289;45.602;11.904;2022-12-11T03:12:23;9.13;;;5.93;;
64816;SDS011;53289;45.602;11.904;2022-12-11T03:14:53;8.77;;;5.53;;
64816;SDS011;53289;45.602;11.904;2022-12-11T03:17:23;8.68;;;5.53;;
64816;SDS011;53289;45.602;11.904;2022-12-11T03:22:43;9.65;;;5.93;;
64816;SDS011;53289;45.602;11.904;2022-12-11T03:25:21;10.35;;;5.78;;
64816;SDS011;53289;45.602;11.904;2022-12-11T03:27:57;9.77;;;6.55;;
64816;SDS011;53289;45.602;11.904;2022-12-11T03:30:36;9.95;;;5.97;;
64816;SDS011;53289;45.602;11.904;2022-12-11T03:33:05;8.57;;;5.70;;
64816;SDS011;53289;45.602;11.904;2022-12-11T03:35:58;9.93;;;6.65;;
64816;SDS011;53289;45.602;11.904;2022-12-11T03:38:35;9.98;;;6.90;;
64816;SDS011;53289;45.602;11.904;2022-12-11T03:41:05;11.23;;;7.72;;
64816;SDS011;53289;45.602;11.904;2022-12-11T03:43:34;10.63;;;6.55;;
64816;SDS011;53289;45.602;11.904;2022-12-11T03:46:08;11.40;;;7.97;;
64816;SDS011;53289;45.602;11.904;2022-12-11T03:48:37;12.80;;;7.20;;
64816;SDS011;53289;45.602;11.904;2022-12-11T03:51:07;10.75;;;6.18;;
64816;SDS011;53289;45.602;11.904;2022-12-11T03:53:34;11.23;;;7.07;;
64816;SDS011;53289;45.602;11.904;2022-12-11T03:56:03;11.20;;;7.20;;
64816;SDS011;53289;45.602;11.904;2022-12-11T03:58:31;11.40;;;6.72;;
64816;SDS011;53289;45.602;11.904;2022-12-11T04:00:57;9.65;;;6.05;;
64816;SDS011;53289;45.602;11.904;2022-12-11T04:03:23;11.52;;;6.72;;
64816;SDS011;53289;45.602;11.904;2022-12-11T04:05:50;9.82;;;6.55;;
64816;SDS011;53289;45.602;11.904;2022-12-11T04:08:18;10.43;;;6.53;;
64816;SDS011;53289;45.602;11.904;2022-12-11T04:10:48;9.98;;;6.13;;
64816;SDS011;53289;45.602;11.904;2022-12-11T04:13:38;9.65;;;6.53;;
64816;SDS011;53289;45.602;11.904;2022-12-11T04:16:05;10.43;;;6.72;;
64816;SDS011;53289;45.602;11.904;2022-12-11T04:18:32;9.27;;;6.22;;
64816;SDS011;53289;45.602;11.904;2022-12-11T04:21:16;10.32;;;6.18;;
64816;SDS011;53289;45.602;11.904;2022-12-11T04:24:00;8.50;;;5.22;;
64816;SDS011;53289;45.602;11.904;2022-12-11T04:26:42;8.75;;;4.72;;
64816;SDS011;53289;45.602;11.904;2022-12-11T04:29:09;5.03;;;3.35;;
64816;SDS011;53289;45.602;11.904;2022-12-11T04:31:36;4.68;;;3.13;;
64816;SDS011;53289;45.602;11.904;2022-12-11T04:34:02;3.47;;;2.50;;
64816;SDS011;53289;45.602;11.904;2022-12-11T04:36:29;3.10;;;2.13;;
64816;SDS011;53289;45.602;11.904;2022-12-11T04:38:55;2.80;;;2.05;;
64816;SDS011;53289;45.602;11.904;2022-12-11T04:41:20;2.70;;;1.92;;
64816;SDS011;53289;45.602;11.904;2022-12-11T04:43:46;2.08;;;1.50;;
64816;SDS011;53289;45.602;11.904;2022-12-11T04:46:13;3.88;;;1.83;;
64816;SDS011;53289;45.602;11.904;2022-12-11T04:48:41;2.92;;;1.60;;
64816;SDS011;53289;45.602;11.904;2022-12-11T04:51:09;2.67;;;1.83;;
64816;SDS011;53289;45.602;11.904;2022-12-11T04:53:35;2.88;;;1.75;;
64816;SDS011;53289;45.602;11.904;2022-12-11T04:56:04;3.20;;;1.70;;
64816;SDS011;53289;45.602;11.904;2022-12-11T04:58:32;1.30;;;1.20;;
64816;SDS011;53289;45.602;11.904;2022-12-11T05:01:00;3.13;;;1.30;;
64816;SDS011;53289;45.602;11.904;2022-12-11T05:03:32;1.52;;;1.20;;
64816;SDS011;53289;45.602;11.904;2022-12-11T05:05:57;1.52;;;1.10;;
64816;SDS011;53289;45.602;11.904;2022-12-11T05:08:23;1.42;;;1.20;;
64816;SDS011;53289;45.602;11.904;2022-12-11T05:11:09;1.50;;;1.00;;
64816;SDS011;53289;45.602;11.904;2022-12-11T05:13:36;0.93;;;0.93;;
64816;SDS011;53289;45.602;11.904;2022-12-11T05:16:03;1.02;;;1.00;;
64816;SDS011;53289;45.602;11.904;2022-12-11T05:18:30;1.08;;;0.90;;
64816;SDS011;53289;45.602;11.904;2022-12-11T05:20:56;0.70;;;0.70;;
64816;SDS011;53289;45.602;11.904;2022-12-11T05:23:24;1.25;;;0.90;;
64816;SDS011;53289;45.602;11.904;2022-12-11T05:25:52;2.05;;;1.17;;
64816;SDS011;53289;45.602;11.904;2022-12-11T05:28:19;0.82;;;0.80;;
64816;SDS011;53289;45.602;11.904;2022-12-11T05:30:46;1.63;;;1.20;;
64816;SDS011;53289;45.602;11.904;2022-12-11T05:33:12;1.42;;;1.10;;
64816;SDS011;53289;45.602;11.904;2022-12-11T05:35:38;0.95;;;0.82;;
64816;SDS011;53289;45.602;11.904;2022-12-11T05:38:11;1.17;;;1.08;;
64816;SDS011;53289;45.602;11.904;2022-12-11T05:40:37;1.92;;;0.80;;
64816;SDS011;53289;45.602;11.904;2022-12-11T05:43:03;1.15;;;1.05;;
64816;SDS011;53289;45.602;11.904;2022-12-11T05:45:30;1.42;;;0.90;;
64816;SDS011;53289;45.602;11.904;2022-12-11T05:47:55;0.73;;;0.73;;
64816;SDS011;53289;45.602;11.904;2022-12-11T05:50:21;0.80;;;0.80;;
64816;SDS011;53289;45.602;11.904;2022-12-11T05:52:47;1.40;;;1.00;;
64816;SDS011;53289;45.602;11.904;2022-12-11T05:55:13;1.17;;;1.02;;
64816;SDS011;53289;45.602;11.904;2022-12-11T05:57:39;1.58;;;0.73;;
64816;SDS011;53289;45.602;11.904;2022-12-11T06:00:05;0.75;;;0.75;;
64816;SDS011;53289;45.602;11.904;2022-12-11T06:02:35;2.80;;;0.90;;
64816;SDS011;53289;45.602;11.904;2022-12-11T06:05:01;1.33;;;0.90;;
64816;SDS011;53289;45.602;11.904;2022-12-11T06:07:27;1.13;;;0.90;;
64816;SDS011;53289;45.602;11.904;2022-12-11T06:09:53;0.90;;;0.80;;
64816;SDS011;53289;45.602;11.904;2022-12-11T06:12:19;1.05;;;0.82;;
64816;SDS011;53289;45.602;11.904;2022-12-11T06:14:45;0.88;;;0.80;;
64816;SDS011;53289;45.602;11.904;2022-12-11T06:17:11;1.02;;;0.90;;
64816;SDS011;53289;45.602;11.904;2022-12-11T06:19:37;1.05;;;0.85;;
64816;SDS011;53289;45.602;11.904;2022-12-11T06:22:03;1.42;;;1.00;;
64816;SDS011;53289;45.602;11.904;2022-12-11T06:24:29;0.88;;;0.88;;
64816;SDS011;53289;45.602;11.904;2022-12-11T06:26:55;1.42;;;1.02;;
64816;SDS011;53289;45.602;11.904;2022-12-11T06:29:22;1.35;;;1.00;;
64816;SDS011;53289;45.602;11.904;2022-12-11T06:31:48;1.23;;;1.13;;
64816;SDS011;53289;45.602;11.904;2022-12-11T06:34:13;1.30;;;1.20;;
64816;SDS011;53289;45.602;11.904;2022-12-11T06:36:39;1.20;;;1.10;;
64816;SDS011;53289;45.602;11.904;2022-12-11T06:39:05;0.95;;;0.95;;
64816;SDS011;53289;45.602;11.904;2022-12-11T06:41:32;1.40;;;1.30;;
64816;SDS011;53289;45.602;11.904;2022-12-11T06:43:58;2.60;;;1.23;;
64816;SDS011;53289;45.602;11.904;2022-12-11T06:46:24;1.23;;;1.13;;
64816;SDS011;53289;45.602;11.904;2022-12-11T06:48:50;1.50;;;1.25;;
64816;SDS011;53289;45.602;11.904;2022-12-11T06:51:19;1.95;;;1.70;;
64816;SDS011;53289;45.602;11.904;2022-12-11T06:53:54;1.45;;;1.35;;
64816;SDS011;53289;45.602;11.904;2022-12-11T06:56:21;2.10;;;1.65;;
64816;SDS011;53289;45.602;11.904;2022-12-11T06:58:47;1.75;;;1.58;;
64816;SDS011;53289;45.602;11.904;2022-12-11T07:03:44;2.50;;;1.40;;
64816;SDS011;53289;45.602;11.904;2022-12-11T07:06:10;1.65;;;1.50;;
64816;SDS011;53289;45.602;11.904;2022-12-11T07:08:37;1.85;;;1.48;;
64816;SDS011;53289;45.602;11.904;2022-12-11T07:11:04;2.13;;;1.60;;
64816;SDS011;53289;45.602;11.904;2022-12-11T07:13:31;1.67;;;1.52;;
64816;SDS011;53289;45.602;11.904;2022-12-11T07:15:58;1.50;;;1.35;;
64816;SDS011;53289;45.602;11.904;2022-12-11T07:18:26;2.25;;;1.58;;
64816;SDS011;53289;45.602;11.904;2022-12-11T07:20:52;1.98;;;1.58;;
64816;SDS011;53289;45.602;11.904;2022-12-11T07:23:19;1.30;;;1.10;;
64816;SDS011;53289;45.602;11.904;2022-12-11T07:25:46;2.33;;;1.17;;
64816;SDS011;53289;45.602;11.904;2022-12-11T07:28:12;2.20;;;1.40;;
64816;SDS011;53289;45.602;11.904;2022-12-11T07:30:38;1.60;;;1.25;;
64816;SDS011;53289;45.602;11.904;2022-12-11T07:33:03;1.83;;;1.30;;
64816;SDS011;53289;45.602;11.904;2022-12-11T07:35:32;1.90;;;1.50;;
64816;SDS011;53289;45.602;11.904;2022-12-11T07:37:59;4.28;;;2.63;;
64816;SDS011;53289;45.602;11.904;2022-12-11T07:40:25;2.00;;;1.73;;
64816;SDS011;53289;45.602;11.904;2022-12-11T07:42:51;2.58;;;1.70;;
64816;SDS011;53289;45.602;11.904;2022-12-11T07:45:17;2.42;;;1.63;;
64816;SDS011;53289;45.602;11.904;2022-12-11T07:47:44;2.72;;;1.70;;
64816;SDS011;53289;45.602;11.904;2022-12-11T07:50:09;3.00;;;2.10;;
64816;SDS011;53289;45.602;11.904;2022-12-11T07:52:35;3.38;;;1.80;;
64816;SDS011;53289;45.602;11.904;2022-12-11T07:55:01;3.65;;;1.80;;
64816;SDS011;53289;45.602;11.904;2022-12-11T07:57:28;2.28;;;1.80;;
64816;SDS011;53289;45.602;11.904;2022-12-11T07:59:54;2.50;;;1.90;;
64816;SDS011;53289;45.602;11.904;2022-12-11T08:02:20;2.78;;;1.67;;
64816;SDS011;53289;45.602;11.904;2022-12-11T08:04:47;2.00;;;1.60;;
64816;SDS011;53289;45.602;11.904;2022-12-11T08:07:14;1.98;;;1.80;;
64816;SDS011;53289;45.602;11.904;2022-12-11T08:09:40;2.03;;;1.83;;
64816;SDS011;53289;45.602;11.904;2022-12-11T08:12:06;3.35;;;1.83;;
64816;SDS011;53289;45.602;11.904;2022-12-11T08:14:32;2.15;;;1.73;;
64816;SDS011;53289;45.602;11.904;2022-12-11T08:16:58;2.58;;;2.08;;
64816;SDS011;53289;45.602;11.904;2022-12-11T08:19:26;2.00;;;1.67;;
64816;SDS011;53289;45.602;11.904;2022-12-11T08:21:52;3.63;;;1.98;;
64816;SDS011;53289;45.602;11.904;2022-12-11T08:24:18;2.40;;;1.83;;
64816;SDS011;53289;45.602;11.904;2022-12-11T08:26:45;2.05;;;1.40;;
64816;SDS011;53289;45.602;11.904;2022-12-11T08:29:12;2.33;;;1.38;;
64816;SDS011;53289;45.602;11.904;2022-12-11T08:31:39;1.65;;;1.55;;
64816;SDS011;53289;45.602;11.904;2022-12-11T08:34:05;2.25;;;1.88;;
64816;SDS011;53289;45.602;11.904;2022-12-11T08:36:30;2.28;;;1.70;;
64816;SDS011;53289;45.602;11.904;2022-12-11T08:38:56;2.63;;;1.60;;
64816;SDS011;53289;45.602;11.904;2022-12-11T08:41:23;2.38;;;2.15;;
64816;SDS011;53289;45.602;11.904;2022-12-11T08:43:52;2.25;;;1.90;;
64816;SDS011;53289;45.602;11.904;2022-12-11T08:46:19;3.03;;;2.10;;
64816;SDS011;53289;45.602;11.904;2022-12-11T08:48:50;4.07;;;2.33;;
64816;SDS011;53289;45.602;11.904;2022-12-11T08:51:17;2.90;;;2.10;;
64816;SDS011;53289;45.602;11.904;2022-12-11T08:53:46;2.00;;;1.80;;
64816;SDS011;53289;45.602;11.904;2022-12-11T08:56:13;3.20;;;2.58;;
64816;SDS011;53289;45.602;11.904;2022-12-11T08:58:42;3.97;;;2.22;;
64816;SDS011;53289;45.602;11.904;2022-12-11T09:01:09;2.58;;;2.03;;
64816;SDS011;53289;45.602;11.904;2022-12-11T09:03:37;2.17;;;1.98;;
64816;SDS011;53289;45.602;11.904;2022-12-11T09:06:08;3.22;;;2.20;;
64816;SDS011;53289;45.602;11.904;2022-12-11T09:08:37;2.88;;;2.30;;
64816;SDS011;53289;45.602;11.904;2022-12-11T09:11:04;3.55;;;2.58;;
64816;SDS011;53289;45.602;11.904;2022-12-11T09:13:35;4.50;;;2.67;;
64816;SDS011;53289;45.602;11.904;2022-12-11T09:16:03;3.88;;;2.55;;
64816;SDS011;53289;45.602;11.904;2022-12-11T09:18:30;3.47;;;2.42;;
64816;SDS011;53289;45.602;11.904;2022-12-11T09:21:18;5.30;;;2.85;;
64816;SDS011;53289;45.602;11.904;2022-12-11T09:23:44;5.70;;;3.90;;
64816;SDS011;53289;45.602;11.904;2022-12-11T09:26:12;6.13;;;3.90;;
64816;SDS011;53289;45.602;11.904;2022-12-11T09:28:39;7.00;;;4.57;;
64816;SDS011;53289;45.602;11.904;2022-12-11T09:31:07;9.65;;;5.60;;
64816;SDS011;53289;45.602;11.904;2022-12-11T09:33:34;7.45;;;4.57;;
64816;SDS011;53289;45.602;11.904;2022-12-11T09:36:01;4.60;;;3.13;;
64816;SDS011;53289;45.602;11.904;2022-12-11T09:38:28;4.80;;;3.50;;
64816;SDS011;53289;45.602;11.904;2022-12-11T09:40:55;6.25;;;4.07;;
64816;SDS011;53289;45.602;11.904;2022-12-11T09:43:30;6.45;;;5.22;;
64816;SDS011;53289;45.602;11.904;2022-12-11T09:46:09;7.35;;;5.00;;
64816;SDS011;53289;45.602;11.904;2022-12-11T09:48:38;6.90;;;4.47;;
64816;SDS011;53289;45.602;11.904;2022-12-11T09:53:43;17.17;;;10.85;;
64816;SDS011;53289;45.602;11.904;2022-12-11T09:56:17;7.82;;;4.70;;
64816;SDS011;53289;45.602;11.904;2022-12-11T09:59:07;8.55;;;5.78;;
64816;SDS011;53289;45.602;11.904;2022-12-11T10:18:35;3.03;;;1.98;;
64816;SDS011;53289;45.602;11.904;2022-12-11T10:21:02;2.80;;;2.35;;
64816;SDS011;53289;45.602;11.904;2022-12-11T10:24:12;3.53;;;2.30;;
64816;SDS011;53289;45.602;11.904;2022-12-11T10:26:21;3.42;;;2.60;;
64816;SDS011;53289;45.602;11.904;2022-12-11T10:28:48;4.05;;;2.53;;
64816;SDS011;53289;45.602;11.904;2022-12-11T10:34:08;4.75;;;2.45;;
64816;SDS011;53289;45.602;11.904;2022-12-11T10:36:42;3.92;;;2.55;;
64816;SDS011;53289;45.602;11.904;2022-12-11T10:39:11;4.43;;;2.80;;
64816;SDS011;53289;45.602;11.904;2022-12-11T10:41:40;1.80;;;1.58;;
64816;SDS011;53289;45.602;11.904;2022-12-11T10:44:19;2.92;;;2.55;;
64816;SDS011;53289;45.602;11.904;2022-12-11T10:46:48;3.30;;;1.73;;
64816;SDS011;53289;45.602;11.904;2022-12-11T10:49:35;3.65;;;2.63;;
64816;SDS011;53289;45.602;11.904;2022-12-11T10:52:09;3.83;;;2.67;;
64816;SDS011;53289;45.602;11.904;2022-12-11T10:54:51;2.13;;;1.67;;
64816;SDS011;53289;45.602;11.904;2022-12-11T10:57:26;2.30;;;2.00;;
64816;SDS011;53289;45.602;11.904;2022-12-11T10:59:54;2.92;;;2.13;;
64816;SDS011;53289;45.602;11.904;2022-12-11T11:02:24;3.70;;;2.22;;
64816;SDS011;53289;45.602;11.904;2022-12-11T11:04:53;3.07;;;1.90;;
64816;SDS011;53289;45.602;11.904;2022-12-11T11:07:22;2.50;;;2.08;;
64816;SDS011;53289;45.602;11.904;2022-12-11T11:09:51;2.63;;;2.13;;
64816;SDS011;53289;45.602;11.904;2022-12-11T11:12:40;7.82;;;2.90;;
64816;SDS011;53289;45.602;11.904;2022-12-11T11:17:51;2.83;;;1.80;;
64816;SDS011;53289;45.602;11.904;2022-12-11T11:20:19;3.10;;;2.00;;
64816;SDS011;53289;45.602;11.904;2022-12-11T11:22:59;3.13;;;1.75;;
64816;SDS011;53289;45.602;11.904;2022-12-11T11:25:28;2.42;;;2.13;;
64816;SDS011;53289;45.602;11.904;2022-12-11T11:27:58;5.55;;;2.80;;
64816;SDS011;53289;45.602;11.904;2022-12-11T11:30:26;2.75;;;2.20;;
64816;SDS011;53289;45.602;11.904;2022-12-11T11:32:56;3.60;;;2.17;;
64816;SDS011;53289;45.602;11.904;2022-12-11T11:35:27;4.18;;;2.13;;
64816;SDS011;53289;45.602;11.904;2022-12-11T11:40:48;2.88;;;2.13;;
64816;SDS011;53289;45.602;11.904;2022-12-11T11:46:00;2.30;;;2.10;;
64816;SDS011;53289;45.602;11.904;2022-12-11T11:51:33;3.85;;;2.08;;
64816;SDS011;53289;45.602;11.904;2022-12-11T11:54:00;3.55;;;2.20;;
64816;SDS011;53289;45.602;11.904;2022-12-11T11:56:34;2.43;;;2.03;;
64816;SDS011;53289;45.602;11.904;2022-12-11T11:59:04;2.75;;;2.00;;
64816;SDS011;53289;45.602;11.904;2022-12-11T12:01:31;2.83;;;2.17;;
64816;SDS011;53289;45.602;11.904;2022-12-11T12:03:57;3.42;;;2.20;;
64816;SDS011;53289;45.602;11.904;2022-12-11T12:27:37;4.32;;;2.42;;
64816;SDS011;53289;45.602;11.904;2022-12-11T12:30:16;3.65;;;2.33;;
64816;SDS011;53289;45.602;11.904;2022-12-11T12:38:05;3.53;;;2.38;;
64816;SDS011;53289;45.602;11.904;2022-12-11T12:45:53;4.05;;;2.53;;
64816;SDS011;53289;45.602;11.904;2022-12-11T12:48:40;4.43;;;2.40;;
64816;SDS011;53289;45.602;11.904;2022-12-11T12:51:06;4.40;;;2.28;;
64816;SDS011;53289;45.602;11.904;2022-12-11T12:53:37;3.35;;;2.45;;
64816;SDS011;53289;45.602;11.904;2022-12-11T12:56:06;4.68;;;2.65;;
64816;SDS011;53289;45.602;11.904;2022-12-11T13:01:05;5.78;;;3.03;;
64816;SDS011;53289;45.602;11.904;2022-12-11T13:03:35;3.60;;;2.60;;
64816;SDS011;53289;45.602;11.904;2022-12-11T13:06:13;4.20;;;2.75;;
64816;SDS011;53289;45.602;11.904;2022-12-11T13:08:46;4.60;;;2.88;;
64816;SDS011;53289;45.602;11.904;2022-12-11T13:11:15;4.75;;;2.40;;
64816;SDS011;53289;45.602;11.904;2022-12-11T13:13:44;3.80;;;2.67;;
64816;SDS011;53289;45.602;11.904;2022-12-11T13:22:24;5.22;;;3.22;;
64816;SDS011;53289;45.602;11.904;2022-12-11T13:24:48;5.18;;;3.15;;
64816;SDS011;53289;45.602;11.904;2022-12-11T13:32:39;5.28;;;2.83;;
64816;SDS011;53289;45.602;11.904;2022-12-11T13:35:24;4.53;;;2.90;;
64816;SDS011;53289;45.602;11.904;2022-12-11T13:37:51;7.10;;;3.60;;
64816;SDS011;53289;45.602;11.904;2022-12-11T13:40:21;6.22;;;3.65;;
64816;SDS011;53289;45.602;11.904;2022-12-11T13:42:51;5.93;;;3.25;;
64816;SDS011;53289;45.602;11.904;2022-12-11T13:45:28;5.65;;;3.70;;
64816;SDS011;53289;45.602;11.904;2022-12-11T13:48:22;7.18;;;3.92;;
64816;SDS011;53289;45.602;11.904;2022-12-11T13:50:54;8.05;;;4.55;;
64816;SDS011;53289;45.602;11.904;2022-12-11T13:53:22;5.47;;;3.60;;
64816;SDS011;53289;45.602;11.904;2022-12-11T13:56:21;11.45;;;5.75;;
64816;SDS011;53289;45.602;11.904;2022-12-11T13:58:44;8.73;;;4.80;;
64816;SDS011;53289;45.602;11.904;2022-12-11T14:01:26;11.55;;;5.30;;
64816;SDS011;53289;45.602;11.904;2022-12-11T14:03:57;18.15;;;10.13;;
64816;SDS011;53289;45.602;11.904;2022-12-11T14:06:31;11.00;;;6.60;;
64816;SDS011;53289;45.602;11.904;2022-12-11T14:09:00;7.50;;;4.22;;
64816;SDS011;53289;45.602;11.904;2022-12-11T14:11:30;6.95;;;4.45;;
64816;SDS011;53289;45.602;11.904;2022-12-11T14:14:00;14.77;;;9.20;;
64816;SDS011;53289;45.602;11.904;2022-12-11T14:16:30;6.63;;;3.90;;
64816;SDS011;53289;45.602;11.904;2022-12-11T14:19:04;14.27;;;7.85;;
64816;SDS011;53289;45.602;11.904;2022-12-11T14:21:31;19.88;;;14.45;;
64816;SDS011;53289;45.602;11.904;2022-12-11T14:23:59;11.23;;;6.65;;
64816;SDS011;53289;45.602;11.904;2022-12-11T14:26:28;10.63;;;5.35;;
64816;SDS011;53289;45.602;11.904;2022-12-11T14:28:56;7.50;;;4.85;;
64816;SDS011;53289;45.602;11.904;2022-12-11T14:33:52;8.65;;;4.60;;
64816;SDS011;53289;45.602;11.904;2022-12-11T14:36:21;7.30;;;4.10;;
64816;SDS011;53289;45.602;11.904;2022-12-11T14:38:51;5.35;;;3.70;;
64816;SDS011;53289;45.602;11.904;2022-12-11T14:44:11;7.03;;;4.28;;
64816;SDS011;53289;45.602;11.904;2022-12-11T14:46:47;30.50;;;17.85;;
64816;SDS011;53289;45.602;11.904;2022-12-11T14:51:53;10.70;;;5.93;;
64816;SDS011;53289;45.602;11.904;2022-12-11T14:54:32;9.93;;;5.72;;
64816;SDS011;53289;45.602;11.904;2022-12-11T14:57:04;7.78;;;4.82;;
64816;SDS011;53289;45.602;11.904;2022-12-11T14:59:34;7.82;;;4.63;;
64816;SDS011;53289;45.602;11.904;2022-12-11T15:07:52;8.70;;;5.05;;
64816;SDS011;53289;45.602;11.904;2022-12-11T15:10:30;8.27;;;4.50;;
64816;SDS011;53289;45.602;11.904;2022-12-11T15:12:59;10.13;;;5.82;;
64816;SDS011;53289;45.602;11.904;2022-12-11T15:15:27;8.93;;;4.90;;
64816;SDS011;53289;45.602;11.904;2022-12-11T15:17:54;8.27;;;4.75;;
64816;SDS011;53289;45.602;11.904;2022-12-11T15:20:22;8.80;;;5.35;;
64816;SDS011;53289;45.602;11.904;2022-12-11T15:22:51;12.32;;;6.97;;
64816;SDS011;53289;45.602;11.904;2022-12-11T15:25:22;15.35;;;8.52;;
64816;SDS011;53289;45.602;11.904;2022-12-11T15:27:55;6.63;;;4.00;;
64816;SDS011;53289;45.602;11.904;2022-12-11T15:30:28;9.50;;;5.05;;
64816;SDS011;53289;45.602;11.904;2022-12-11T15:35:28;13.15;;;6.82;;
64816;SDS011;53289;45.602;11.904;2022-12-11T15:37:54;20.20;;;9.57;;
64816;SDS011;53289;45.602;11.904;2022-12-11T15:40:22;11.43;;;6.50;;
64816;SDS011;53289;45.602;11.904;2022-12-11T15:42:49;10.18;;;5.45;;
64816;SDS011;53289;45.602;11.904;2022-12-11T15:45:19;10.05;;;5.35;;
64816;SDS011;53289;45.602;11.904;2022-12-11T15:47:47;9.88;;;5.75;;
64816;SDS011;53289;45.602;11.904;2022-12-11T15:50:15;6.32;;;3.63;;
64816;SDS011;53289;45.602;11.904;2022-12-11T15:52:45;10.55;;;5.43;;
64816;SDS011;53289;45.602;11.904;2022-12-11T15:55:11;8.48;;;4.47;;
64816;SDS011;53289;45.602;11.904;2022-12-11T15:57:42;10.23;;;5.38;;
64816;SDS011;53289;45.602;11.904;2022-12-11T16:00:12;5.75;;;3.72;;
64816;SDS011;53289;45.602;11.904;2022-12-11T16:02:39;8.95;;;4.55;;
64816;SDS011;53289;45.602;11.904;2022-12-11T16:05:05;9.48;;;5.45;;
64816;SDS011;53289;45.602;11.904;2022-12-11T16:07:32;9.43;;;5.47;;
64816;SDS011;53289;45.602;11.904;2022-12-11T16:09:59;11.07;;;6.75;;
64816;SDS011;53289;45.602;11.904;2022-12-11T16:12:24;8.00;;;4.72;;
64816;SDS011;53289;45.602;11.904;2022-12-11T16:14:50;7.70;;;4.53;;
64816;SDS011;53289;45.602;11.904;2022-12-11T16:17:16;8.00;;;4.65;;
64816;SDS011;53289;45.602;11.904;2022-12-11T16:19:43;10.20;;;4.80;;
64816;SDS011;53289;45.602;11.904;2022-12-11T16:22:10;7.88;;;4.43;;
64816;SDS011;53289;45.602;11.904;2022-12-11T16:24:37;7.60;;;4.60;;
64816;SDS011;53289;45.602;11.904;2022-12-11T16:27:04;8.25;;;4.65;;
64816;SDS011;53289;45.602;11.904;2022-12-11T16:29:34;7.43;;;4.32;;
64816;SDS011;53289;45.602;11.904;2022-12-11T16:32:01;8.27;;;4.97;;
64816;SDS011;53289;45.602;11.904;2022-12-11T16:34:28;8.77;;;4.90;;
64816;SDS011;53289;45.602;11.904;2022-12-11T16:36:56;8.23;;;4.00;;
64816;SDS011;53289;45.602;11.904;2022-12-11T16:39:22;11.85;;;6.45;;